createdAt,value
2024-04-18T00:02:40.757Z,2.90
2024-04-18T00:05:28.423Z,3.20
2024-04-18T00:08:16.095Z,3.17
2024-04-18T00:11:03.892Z,3.10
2024-04-18T00:13:57.660Z,3.43
2024-04-18T00:16:57.697Z,3.00
2024-04-18T00:19:45.343Z,3.50
2024-04-18T00:22:51.864Z,3.30
2024-04-18T00:25:48.364Z,2.97
2024-04-18T00:28:43.713Z,3.37
2024-04-18T00:31:37.279Z,3.60
2024-04-18T00:34:24.938Z,3.20
2024-04-18T00:37:12.588Z,3.30
2024-04-18T00:40:18.677Z,3.20
2024-04-18T00:43:06.317Z,3.30
2024-04-18T00:46:02.149Z,3.47
2024-04-18T00:48:49.983Z,3.40
2024-04-18T00:51:37.813Z,3.30
2024-04-18T00:54:25.547Z,3.50
2024-04-18T00:57:20.124Z,3.20
2024-04-18T01:00:08.461Z,3.20
2024-04-18T01:03:14.659Z,3.30
2024-04-18T01:06:02.681Z,3.13
2024-04-18T01:09:10.442Z,3.67
2024-04-18T01:11:58.142Z,3.47
2024-04-18T01:14:45.828Z,3.73
2024-04-18T01:17:52.461Z,3.70
2024-04-18T01:20:40.332Z,3.70
2024-04-18T01:23:29.036Z,3.50
2024-04-18T01:26:21.623Z,3.83
2024-04-18T01:29:09.243Z,3.80
2024-04-18T01:31:56.902Z,4.23
2024-04-18T01:34:44.714Z,3.83
2024-04-18T01:37:38.177Z,3.80
2024-04-18T01:40:34.992Z,3.83
2024-04-18T01:43:58.119Z,4.00
2024-04-18T01:47:04.562Z,3.57
2024-04-18T01:49:52.186Z,3.47
2024-04-18T01:52:40.622Z,3.80
2024-04-18T01:55:28.248Z,3.73
2024-04-18T01:58:29.456Z,3.50
2024-04-18T02:01:17.233Z,3.60
2024-04-18T02:04:05.124Z,3.67
2024-04-18T02:06:52.914Z,3.57
2024-04-18T02:09:43.796Z,3.50
2024-04-18T02:12:46.641Z,4.00
2024-04-18T02:15:34.454Z,4.03
2024-04-18T02:18:34.639Z,3.57
2024-04-18T02:21:33.694Z,3.70
2024-04-18T02:24:21.796Z,3.50
2024-04-18T02:27:09.444Z,3.50
2024-04-18T02:29:57.223Z,3.83
2024-04-18T02:33:00.180Z,3.23
2024-04-18T02:36:05.448Z,3.70
2024-04-18T02:39:02.434Z,3.67
2024-04-18T02:41:51.103Z,4.10
2024-04-18T02:44:48.054Z,3.57
2024-04-18T02:47:35.820Z,4.00
2024-04-18T02:50:26.428Z,3.50
2024-04-18T02:53:14.049Z,4.10
2024-04-18T02:56:20.199Z,4.30
2024-04-18T02:59:27.798Z,3.40
2024-04-18T03:02:15.513Z,3.73
2024-04-18T03:05:03.166Z,4.10
2024-04-18T03:07:58.717Z,3.60
2024-04-18T03:11:04.551Z,3.80
2024-04-18T03:13:58.012Z,3.93
2024-04-18T03:16:51.693Z,3.63
2024-04-18T03:19:39.391Z,3.70
2024-04-18T03:22:43.399Z,3.87
2024-04-18T03:25:31.588Z,3.90
2024-04-18T03:28:25.031Z,4.20
2024-04-18T03:31:12.674Z,4.20
2024-04-18T03:34:00.413Z,4.00
2024-04-18T03:36:54.259Z,4.17
2024-04-18T03:39:50.962Z,3.73
2024-04-18T03:42:38.662Z,3.93
2024-04-18T03:45:26.427Z,4.07
2024-04-18T03:48:14.102Z,3.60
2024-04-18T03:51:04.822Z,3.70
2024-04-18T03:54:10.930Z,4.00
2024-04-18T03:57:13.689Z,3.67
2024-04-18T04:00:17.456Z,4.10
2024-04-18T04:03:07.190Z,3.93
2024-04-18T04:05:55.644Z,3.73
2024-04-18T04:08:43.269Z,4.00
2024-04-18T04:11:32.230Z,4.00
2024-04-18T04:14:19.941Z,4.23
2024-04-18T04:17:13.632Z,3.67
2024-04-18T04:20:01.280Z,4.23
2024-04-18T04:22:48.891Z,3.83
2024-04-18T04:25:42.143Z,4.00
2024-04-18T04:28:29.758Z,4.13
2024-04-18T04:31:17.514Z,3.90
2024-04-18T04:34:06.732Z,4.53
2024-04-18T04:36:54.474Z,3.73
2024-04-18T04:39:42.203Z,3.80
2024-04-18T04:42:50.197Z,3.93
2024-04-18T04:45:37.918Z,4.27
2024-04-18T04:48:25.793Z,3.60
2024-04-18T04:51:31.087Z,4.17
2024-04-18T04:54:23.663Z,3.87
2024-04-18T04:57:12.298Z,4.10
2024-04-18T04:59:59.977Z,4.00
2024-04-18T05:03:07.609Z,4.30
2024-04-18T05:06:12.717Z,4.10
2024-04-18T05:09:00.419Z,4.10
2024-04-18T05:11:48.244Z,3.90
2024-04-18T05:14:54.041Z,3.70
2024-04-18T05:17:53.172Z,3.80
2024-04-18T05:20:40.879Z,4.07
2024-04-18T05:23:28.512Z,4.20
2024-04-18T05:26:16.149Z,3.80
2024-04-18T05:29:22.806Z,4.17
2024-04-18T05:32:10.479Z,3.33
2024-04-18T05:34:58.165Z,3.93
2024-04-18T05:37:45.828Z,3.60
2024-04-18T05:40:33.463Z,3.47
2024-04-18T05:43:21.145Z,3.80
2024-04-18T05:46:09.080Z,3.87
2024-04-18T05:48:57.053Z,3.33
2024-04-18T05:51:44.782Z,3.17
2024-04-18T05:54:52.010Z,3.20
2024-04-18T05:58:01.649Z,3.90
2024-04-18T06:01:15.593Z,3.67
2024-04-18T06:04:03.440Z,3.90
2024-04-18T06:06:51.206Z,3.23
2024-04-18T06:09:39.082Z,3.40
2024-04-18T06:12:26.729Z,3.30
2024-04-18T06:15:14.662Z,3.90
2024-04-18T06:18:02.615Z,3.60
2024-04-18T06:20:51.877Z,3.87
2024-04-18T06:23:39.545Z,4.10
2024-04-18T06:26:39.341Z,3.70
2024-04-18T06:29:28.438Z,3.50
2024-04-18T06:32:16.523Z,3.80
2024-04-18T06:35:04.487Z,3.70
2024-04-18T06:37:52.095Z,3.37
2024-04-18T06:40:39.749Z,3.67
2024-04-18T06:43:27.413Z,3.60
2024-04-18T06:46:15.050Z,3.50
2024-04-18T06:49:02.717Z,3.97
2024-04-18T06:51:50.480Z,3.70
2024-04-18T06:54:38.285Z,3.47
2024-04-18T06:57:26.003Z,3.90
2024-04-18T07:00:14.507Z,3.80
2024-04-18T07:03:02.624Z,3.50
2024-04-18T07:06:09.296Z,3.83
2024-04-18T07:09:16.905Z,3.90
2024-04-18T07:12:04.740Z,3.83
2024-04-18T07:14:52.373Z,3.50
2024-04-18T07:18:00.168Z,3.80
2024-04-18T07:20:47.924Z,3.90
2024-04-18T07:23:35.562Z,3.60
2024-04-18T07:26:26.151Z,3.60
2024-04-18T07:29:13.835Z,3.40
2024-04-18T07:32:01.950Z,3.87
2024-04-18T07:34:49.607Z,4.60
2024-04-18T07:37:37.246Z,4.50
2024-04-18T07:40:24.975Z,3.90
2024-04-18T07:43:12.620Z,4.50
2024-04-18T07:46:01.456Z,8.03
2024-04-18T07:48:49.312Z,4.27
2024-04-18T07:51:37.086Z,3.50
2024-04-18T07:54:24.757Z,3.63
2024-04-18T07:57:13.209Z,3.53
2024-04-18T08:00:02.424Z,3.27
2024-04-18T08:03:01.223Z,3.40
2024-04-18T08:05:53.255Z,3.10
2024-04-18T08:08:44.285Z,3.63
2024-04-18T08:12:04.669Z,4.83
2024-04-18T08:14:43.786Z,3.47
2024-04-18T08:17:34.352Z,3.47
2024-04-18T08:20:22.210Z,3.27
2024-04-18T08:23:10.094Z,3.20
2024-04-18T08:25:57.921Z,3.00
2024-04-18T08:28:45.556Z,3.03
2024-04-18T08:31:37.968Z,3.10
2024-04-18T08:34:26.804Z,2.97
2024-04-18T08:37:15.371Z,3.17
2024-04-18T08:40:03.104Z,3.27
2024-04-18T08:42:51.649Z,3.23
2024-04-18T08:45:40.456Z,3.77
2024-04-18T08:48:32.310Z,3.30
2024-04-18T08:51:20.079Z,3.53
2024-04-18T08:54:07.982Z,4.73
2024-04-18T08:56:58.177Z,8.73
2024-04-18T08:59:47.837Z,8.43
2024-04-18T09:02:36.099Z,3.20
2024-04-18T09:05:23.811Z,2.70
2024-04-18T09:08:13.910Z,2.70
2024-04-18T09:11:01.642Z,3.10
2024-04-18T09:13:49.719Z,2.47
2024-04-18T09:16:39.095Z,2.40
2024-04-18T09:19:27.033Z,2.27
2024-04-18T09:22:15.795Z,2.90
2024-04-18T09:25:07.864Z,2.57
2024-04-18T09:27:55.507Z,2.70
2024-04-18T09:30:43.262Z,2.67
2024-04-18T09:33:34.563Z,3.07
2024-04-18T09:36:22.871Z,2.70
2024-04-18T09:39:12.239Z,2.50
2024-04-18T09:42:07.479Z,2.77
2024-04-18T09:44:55.788Z,2.40
2024-04-18T09:47:45.890Z,2.80
2024-04-18T09:50:33.595Z,2.60
2024-04-18T09:53:21.703Z,2.20
2024-04-18T09:56:09.535Z,2.40
2024-04-18T09:59:00.999Z,2.13
2024-04-18T10:01:49.642Z,2.30
2024-04-18T10:04:37.586Z,2.10
2024-04-18T10:07:27.061Z,2.20
2024-04-18T10:10:16.788Z,2.43
2024-04-18T10:13:05.539Z,2.20
2024-04-18T10:16:06.709Z,2.40
2024-04-18T10:18:54.758Z,2.60
2024-04-18T10:21:49.903Z,2.90
2024-04-18T10:24:52.621Z,2.50
2024-04-18T10:27:44.242Z,3.20
2024-04-18T10:30:32.786Z,1.93
2024-04-18T10:33:32.825Z,1.77
2024-04-18T10:36:21.279Z,1.40
2024-04-18T10:39:09.003Z,1.27
2024-04-18T10:42:00.560Z,1.10
2024-04-18T10:44:49.165Z,1.33
2024-04-18T10:47:38.454Z,1.50
2024-04-18T10:50:28.236Z,1.40
2024-04-18T10:53:17.184Z,1.30
2024-04-18T10:56:05.344Z,1.67
2024-04-18T10:58:52.987Z,1.47
2024-04-18T11:01:40.911Z,1.27
2024-04-18T11:04:28.602Z,1.60
2024-04-18T11:07:16.352Z,1.40
2024-04-18T11:10:04.029Z,1.57
2024-04-18T11:12:51.771Z,1.50
2024-04-18T11:15:39.513Z,1.43
2024-04-18T11:18:27.283Z,1.50
2024-04-18T11:21:18.268Z,1.70
2024-04-18T11:24:06.298Z,1.60
2024-04-18T11:26:54.090Z,1.77
2024-04-18T11:29:44.243Z,1.70
2024-04-18T11:32:33.641Z,1.80
2024-04-18T11:35:21.477Z,2.20
2024-04-18T11:38:10.402Z,3.13
2024-04-18T11:40:58.165Z,4.83
2024-04-18T11:43:46.135Z,3.47
2024-04-18T11:46:34.706Z,2.90
2024-04-18T11:49:22.430Z,2.37
2024-04-18T11:52:10.150Z,2.30
2024-04-18T11:55:16.398Z,2.83
2024-04-18T11:58:04.383Z,6.73
2024-04-18T12:00:58.236Z,2.77
2024-04-18T12:04:01.381Z,2.90
2024-04-18T12:06:51.833Z,2.77
2024-04-18T12:09:52.242Z,2.33
2024-04-18T12:12:40.017Z,2.90
2024-04-18T12:15:41.760Z,2.83
2024-04-18T12:18:51.810Z,2.57
2024-04-18T12:21:44.600Z,2.30
2024-04-18T12:24:32.360Z,2.50
2024-04-18T12:27:28.837Z,2.63
2024-04-18T12:30:17.258Z,2.20
2024-04-18T12:33:05.139Z,2.93
2024-04-18T12:35:53.190Z,3.23
2024-04-18T12:38:40.864Z,3.53
2024-04-18T12:41:28.536Z,2.70
2024-04-18T12:44:17.457Z,2.50
2024-04-18T12:47:08.236Z,2.80
2024-04-18T12:50:06.578Z,2.80
2024-04-18T12:52:55.564Z,3.00
2024-04-18T12:55:43.233Z,3.03
2024-04-18T12:58:30.859Z,3.00
2024-04-18T13:01:27.572Z,2.80
2024-04-18T13:04:15.413Z,2.73
2024-04-18T13:07:09.315Z,2.40
2024-04-18T13:09:58.030Z,2.30
2024-04-18T13:13:03.294Z,2.77
2024-04-18T13:15:54.674Z,2.23
2024-04-18T13:18:43.858Z,2.20
2024-04-18T13:21:51.548Z,2.93
2024-04-18T13:24:39.262Z,3.00
2024-04-18T13:27:44.938Z,2.97
2024-04-18T13:30:52.578Z,2.80
2024-04-18T13:34:00.514Z,4.27
2024-04-18T13:36:48.719Z,3.63
2024-04-18T13:39:36.404Z,2.87
2024-04-18T13:42:27.140Z,3.17
2024-04-18T13:45:14.845Z,3.00
2024-04-18T13:48:14.526Z,3.20
2024-04-18T13:51:05.120Z,2.87
2024-04-18T13:53:52.842Z,3.00
2024-04-18T13:56:43.480Z,3.13
2024-04-18T13:59:31.087Z,2.73
2024-04-18T14:02:18.750Z,3.00
2024-04-18T14:05:06.457Z,2.90
2024-04-18T14:07:54.084Z,3.33
2024-04-18T14:10:50.742Z,2.63
2024-04-18T14:13:47.376Z,2.97
2024-04-18T14:17:08.692Z,2.40
2024-04-18T14:19:57.932Z,2.80
2024-04-18T14:22:46.923Z,2.80
2024-04-18T14:25:34.572Z,2.87
2024-04-18T14:28:34.716Z,2.43
2024-04-18T14:31:40.805Z,2.30
2024-04-18T14:34:43.369Z,2.67
2024-04-18T14:37:33.726Z,2.30
2024-04-18T14:40:21.424Z,2.40
2024-04-18T14:43:09.060Z,2.63
2024-04-18T14:45:56.701Z,2.70
2024-04-18T14:49:11.296Z,2.80
2024-04-18T14:51:59.165Z,2.40
2024-04-18T14:54:47.347Z,2.67
2024-04-18T14:57:52.814Z,3.00
2024-04-18T15:00:40.462Z,3.20
2024-04-18T15:03:28.202Z,3.33
2024-04-18T15:06:35.922Z,3.07
2024-04-18T15:09:29.912Z,3.30
2024-04-18T15:12:18.410Z,3.83
2024-04-18T15:15:08.938Z,3.20
2024-04-18T15:17:56.675Z,5.63
2024-04-18T15:20:44.364Z,4.23
2024-04-18T15:23:31.994Z,3.97
2024-04-18T15:26:39.584Z,3.40
2024-04-18T15:29:27.473Z,4.53
2024-04-18T15:32:33.741Z,3.10
2024-04-18T15:35:39.971Z,3.97
2024-04-18T15:38:36.515Z,6.73
2024-04-18T15:41:36.726Z,3.37
2024-04-18T15:44:34.898Z,2.47
2024-04-18T15:47:22.608Z,1.90
2024-04-18T15:50:10.387Z,1.93
2024-04-18T15:52:58.017Z,1.60
2024-04-18T15:55:48.854Z,1.70
2024-04-18T15:58:48.866Z,1.33
2024-04-18T16:01:36.534Z,1.60
2024-04-18T16:04:33.278Z,1.60
2024-04-18T16:07:21.076Z,1.30
2024-04-18T16:10:28.554Z,1.50
2024-04-18T16:13:16.206Z,1.60
2024-04-18T16:16:11.592Z,1.37
2024-04-18T16:18:59.252Z,1.50
2024-04-18T16:21:53.157Z,1.50
2024-04-18T16:24:48.904Z,1.57
2024-04-18T16:27:37.153Z,1.57
2024-04-18T16:30:26.496Z,1.53
2024-04-18T16:33:14.392Z,1.70
2024-04-18T16:36:02.118Z,1.43
2024-04-18T16:39:11.168Z,1.53
2024-04-18T16:41:59.215Z,1.60
2024-04-18T16:44:46.822Z,1.50
2024-04-18T16:47:35.160Z,1.43
2024-04-18T16:50:22.842Z,1.40
2024-04-18T16:53:10.481Z,1.13
2024-04-18T16:56:03.941Z,1.60
2024-04-18T16:59:12.849Z,1.80
2024-04-18T17:02:00.514Z,1.90
2024-04-18T17:04:48.110Z,1.60
2024-04-18T17:07:35.845Z,1.73
2024-04-18T17:10:41.613Z,1.43
2024-04-18T17:13:52.885Z,1.70
2024-04-18T17:16:41.918Z,1.97
2024-04-18T17:19:41.245Z,1.73
2024-04-18T17:22:28.926Z,2.10
2024-04-18T17:25:17.261Z,1.90
2024-04-18T17:28:05.096Z,1.97
2024-04-18T17:30:53.403Z,1.73
2024-04-18T17:33:41.152Z,1.87
2024-04-18T17:36:28.915Z,2.10
2024-04-18T17:39:16.768Z,1.90
2024-04-18T17:42:04.832Z,1.90
2024-04-18T17:45:12.448Z,1.80
2024-04-18T17:48:20.123Z,1.60
2024-04-18T17:51:08.343Z,1.70
2024-04-18T17:53:55.961Z,2.00
2024-04-18T17:56:43.582Z,2.10
2024-04-18T17:59:31.646Z,1.83
2024-04-18T18:02:19.312Z,1.60
2024-04-18T18:05:22.259Z,1.90
2024-04-18T18:08:09.925Z,1.60
2024-04-18T18:11:03.767Z,1.53
2024-04-18T18:13:53.658Z,1.63
2024-04-18T18:16:41.633Z,1.60
2024-04-18T18:19:29.866Z,1.53
2024-04-18T18:22:18.375Z,1.40
2024-04-18T18:25:06.225Z,1.73
2024-04-18T18:27:53.889Z,1.70
2024-04-18T18:30:50.249Z,1.43
2024-04-18T18:33:48.497Z,2.27
2024-04-18T18:36:36.274Z,3.90
2024-04-18T18:39:24.915Z,1.50
2024-04-18T18:42:12.728Z,1.40
2024-04-18T18:45:00.588Z,1.10
2024-04-18T18:47:48.272Z,1.20
2024-04-18T18:50:45.097Z,1.23
2024-04-18T18:53:32.725Z,1.10
2024-04-18T18:56:20.421Z,0.80
2024-04-18T18:59:27.139Z,0.73
2024-04-18T19:02:15.248Z,1.10
2024-04-18T19:05:21.500Z,1.00
2024-04-18T19:08:09.115Z,0.90
2024-04-18T19:11:13.176Z,1.03
2024-04-18T19:14:00.928Z,1.70
2024-04-18T19:16:48.697Z,0.90
2024-04-18T19:19:36.384Z,0.80
2024-04-18T19:22:23.978Z,0.90
2024-04-18T19:25:11.619Z,0.70
2024-04-18T19:27:59.261Z,0.70
2024-04-18T19:30:46.908Z,0.80
2024-04-18T19:33:34.677Z,0.90
2024-04-18T19:36:22.401Z,1.07
2024-04-18T19:39:10.081Z,0.90
2024-04-18T19:42:17.699Z,1.50
2024-04-18T19:45:05.752Z,1.40
2024-04-18T19:47:53.441Z,1.30
2024-04-18T19:50:41.101Z,1.40
2024-04-18T19:53:43.769Z,1.80
2024-04-18T19:56:31.396Z,1.77
2024-04-18T19:59:19.171Z,1.83
2024-04-18T20:02:07.416Z,1.90
2024-04-18T20:04:55.225Z,2.00
2024-04-18T20:07:42.840Z,2.27
2024-04-18T20:10:30.477Z,2.00
2024-04-18T20:13:18.106Z,1.90
2024-04-18T20:16:06.216Z,2.00
2024-04-18T20:18:54.057Z,1.90
2024-04-18T20:21:43.586Z,1.93
2024-04-18T20:24:31.442Z,1.90
2024-04-18T20:27:39.367Z,1.83
2024-04-18T20:30:27.184Z,2.00
2024-04-18T20:33:23.867Z,1.77
2024-04-18T20:36:11.603Z,1.83
2024-04-18T20:38:59.606Z,1.70
2024-04-18T20:41:47.968Z,1.97
2024-04-18T20:44:35.659Z,1.80
2024-04-18T20:47:23.337Z,1.60
2024-04-18T20:50:11.079Z,2.13
2024-04-18T20:52:58.771Z,1.70
2024-04-18T20:55:46.371Z,2.07
2024-04-18T20:58:33.991Z,1.83
2024-04-18T21:01:21.788Z,1.83
2024-04-18T21:04:13.528Z,1.73
2024-04-18T21:07:01.383Z,1.70
2024-04-18T21:09:49.147Z,1.50
2024-04-18T21:12:36.913Z,1.60
2024-04-18T21:15:24.678Z,1.67
2024-04-18T21:18:12.629Z,1.70
2024-04-18T21:21:00.421Z,1.80
2024-04-18T21:23:48.138Z,1.80
2024-04-18T21:26:35.872Z,1.40
2024-04-18T21:29:23.581Z,1.40
2024-04-18T21:32:11.323Z,1.50
2024-04-18T21:34:59.027Z,1.60
2024-04-18T21:37:46.787Z,1.57
2024-04-18T21:40:34.590Z,1.70
2024-04-18T21:43:22.821Z,1.53
2024-04-18T21:46:10.555Z,1.40
2024-04-18T21:48:58.349Z,1.50
2024-04-18T21:51:46.146Z,1.50
2024-04-18T21:54:34.121Z,1.50
2024-04-18T21:57:23.294Z,1.70
2024-04-18T22:00:12.666Z,1.80
2024-04-18T22:03:18.660Z,2.00
2024-04-18T22:06:07.973Z,1.73
2024-04-18T22:08:55.857Z,2.00
2024-04-18T22:11:43.835Z,1.63
2024-04-18T22:14:31.604Z,1.90
2024-04-18T22:17:19.431Z,1.80
2024-04-18T22:20:07.416Z,2.27
2024-04-18T22:22:55.165Z,2.00
2024-04-18T22:25:44.230Z,2.00
2024-04-18T22:28:31.989Z,2.40
2024-04-18T22:31:19.760Z,2.23
2024-04-18T22:34:10.708Z,2.30
2024-04-18T22:37:01.874Z,2.37
2024-04-18T22:39:49.633Z,2.10
2024-04-18T22:42:37.418Z,2.07
2024-04-18T22:45:25.230Z,2.13
2024-04-18T22:48:13.123Z,2.30
2024-04-18T22:51:00.994Z,2.23
2024-04-18T22:53:48.720Z,1.90
2024-04-18T22:56:36.493Z,2.10
2024-04-18T22:59:24.502Z,2.13
2024-04-18T23:02:12.348Z,2.20
2024-04-18T23:05:00.174Z,2.30
2024-04-18T23:07:47.976Z,2.40
2024-04-18T23:10:48.657Z,2.33
2024-04-18T23:13:36.552Z,2.33
2024-04-18T23:16:24.345Z,2.50
2024-04-18T23:19:12.149Z,2.80
2024-04-18T23:21:59.932Z,2.50
2024-04-18T23:24:59.831Z,3.03
2024-04-18T23:27:48.402Z,2.97
2024-04-18T23:30:36.163Z,2.57
2024-04-18T23:33:24.128Z,2.77
2024-04-18T23:36:12.017Z,3.07
2024-04-18T23:38:59.776Z,2.87
2024-04-18T23:41:47.659Z,2.87
2024-04-18T23:44:35.427Z,3.03
2024-04-18T23:47:23.153Z,2.93
2024-04-18T23:50:10.963Z,2.80
2024-04-18T23:52:58.741Z,3.00
2024-04-18T23:55:46.510Z,3.10
2024-04-18T23:58:34.319Z,3.13
